createdAt,value
2023-01-20T00:01:27.909Z,23.73
2023-01-20T00:03:58.332Z,24.20
2023-01-20T00:06:29.195Z,24.00
2023-01-20T00:08:59.227Z,25.37
2023-01-20T00:11:28.624Z,25.37
2023-01-20T00:13:57.669Z,25.93
2023-01-20T00:16:27.107Z,25.33
2023-01-20T00:18:55.974Z,26.93
2023-01-20T00:21:25.561Z,26.97
2023-01-20T00:23:53.823Z,27.80
2023-01-20T00:26:23.868Z,28.50
2023-01-20T00:28:55.375Z,27.87
2023-01-20T00:31:25.380Z,28.23
2023-01-20T00:33:55.908Z,28.43
2023-01-20T00:36:26.803Z,28.87
2023-01-20T00:38:54.943Z,28.83
2023-01-20T00:41:23.154Z,27.70
2023-01-20T00:43:51.603Z,27.90
2023-01-20T00:46:19.830Z,29.00
2023-01-20T00:48:47.984Z,27.77
2023-01-20T00:51:16.828Z,28.97
2023-01-20T00:53:46.348Z,28.30
2023-01-20T00:56:14.627Z,27.87
2023-01-20T00:58:44.243Z,26.97
2023-01-20T01:01:13.085Z,28.50
2023-01-20T01:03:41.372Z,27.83
2023-01-20T01:06:11.879Z,28.00
2023-01-20T01:08:40.742Z,25.33
2023-01-20T01:11:11.064Z,28.60
2023-01-20T01:13:39.935Z,26.77
2023-01-20T01:16:12.973Z,26.73
2023-01-20T01:18:41.838Z,24.97
2023-01-20T01:21:11.730Z,24.90
2023-01-20T01:23:39.912Z,24.60
2023-01-20T01:26:08.308Z,25.10
2023-01-20T01:28:38.066Z,24.17
2023-01-20T01:31:08.227Z,25.50
2023-01-20T01:33:36.800Z,24.90
2023-01-20T01:36:06.310Z,24.80
2023-01-20T01:38:34.542Z,23.63
2023-01-20T01:41:03.027Z,22.77
2023-01-20T01:43:33.100Z,22.90
2023-01-20T01:46:03.282Z,21.70
2023-01-20T01:48:37.515Z,22.07
2023-01-20T01:51:10.129Z,22.67
2023-01-20T01:53:42.921Z,22.60
2023-01-20T01:56:12.224Z,22.43
2023-01-20T01:58:45.331Z,22.67
2023-01-20T02:01:15.346Z,22.70
2023-01-20T02:03:50.573Z,23.27
2023-01-20T02:06:20.125Z,22.07
2023-01-20T02:08:49.276Z,21.97
2023-01-20T02:11:17.454Z,22.63
2023-01-20T02:13:46.108Z,22.63
2023-01-20T02:16:27.422Z,22.23
2023-01-20T02:19:06.974Z,21.23
2023-01-20T02:21:55.402Z,20.30
2023-01-20T02:25:01.357Z,20.93
2023-01-20T02:27:51.133Z,21.27
2023-01-20T02:30:48.442Z,21.50
2023-01-20T02:33:25.928Z,20.97
2023-01-20T02:35:59.729Z,21.80
2023-01-20T02:38:48.896Z,21.17
2023-01-20T02:41:22.867Z,21.57
2023-01-20T02:43:58.824Z,21.07
2023-01-20T02:46:33.287Z,20.77
2023-01-20T02:49:12.005Z,19.50
2023-01-20T02:51:45.385Z,21.30
2023-01-20T02:54:16.302Z,20.60
2023-01-20T02:56:44.604Z,21.67
2023-01-20T02:59:15.008Z,19.97
2023-01-20T03:01:47.670Z,21.07
2023-01-20T03:04:22.504Z,19.50
2023-01-20T03:06:55.395Z,22.20
2023-01-20T03:09:28.990Z,22.47
2023-01-20T03:12:01.940Z,20.47
2023-01-20T03:14:30.265Z,22.20
2023-01-20T03:16:58.488Z,21.90
2023-01-20T03:19:28.132Z,22.27
2023-01-20T03:21:56.355Z,20.63
2023-01-20T03:24:27.366Z,21.90
2023-01-20T03:26:55.798Z,20.97
2023-01-20T03:29:23.988Z,21.23
2023-01-20T03:31:56.052Z,20.83
2023-01-20T03:34:26.348Z,20.45
2023-01-20T03:36:56.976Z,20.73
2023-01-20T03:39:26.893Z,20.37
2023-01-20T03:42:07.200Z,20.70
2023-01-20T03:44:47.958Z,21.77
2023-01-20T03:47:24.362Z,20.00
2023-01-20T03:49:59.904Z,19.43
2023-01-20T03:52:47.509Z,20.50
2023-01-20T03:55:21.387Z,21.00
2023-01-20T03:58:04.780Z,20.87
2023-01-20T04:00:35.997Z,21.43
2023-01-20T04:03:09.163Z,21.73
2023-01-20T04:05:38.554Z,21.43
2023-01-20T04:08:11.208Z,21.23
2023-01-20T04:10:43.267Z,20.07
2023-01-20T04:13:11.707Z,25.30
2023-01-20T04:15:44.492Z,20.50
2023-01-20T04:18:18.130Z,21.93
2023-01-20T04:20:48.860Z,22.13
2023-01-20T04:23:24.968Z,21.40
2023-01-20T04:25:53.215Z,22.97
2023-01-20T04:28:21.335Z,21.47
2023-01-20T04:30:50.823Z,21.97
2023-01-20T04:33:19.110Z,22.80
2023-01-20T04:35:47.393Z,24.70
2023-01-20T04:38:15.511Z,22.27
2023-01-20T04:40:45.080Z,24.37
2023-01-20T04:43:13.778Z,21.10
2023-01-20T04:45:42.651Z,22.43
2023-01-20T04:48:11.661Z,21.97
2023-01-20T04:50:40.640Z,21.50
2023-01-20T04:53:10.256Z,21.27
2023-01-20T04:55:38.486Z,18.13
2023-01-20T04:58:07.983Z,21.67
2023-01-20T05:00:36.170Z,20.47
2023-01-20T05:03:06.261Z,20.97
2023-01-20T05:05:34.707Z,20.43
2023-01-20T05:08:04.765Z,19.73
2023-01-20T05:10:33.689Z,20.83
2023-01-20T05:13:02.223Z,18.30
2023-01-20T05:15:31.942Z,19.40
2023-01-20T05:18:00.185Z,19.40
2023-01-20T05:20:28.396Z,20.50
2023-01-20T05:22:56.527Z,19.23
2023-01-20T05:25:24.796Z,19.33
2023-01-20T05:27:52.972Z,20.00
2023-01-20T05:30:21.417Z,20.50
2023-01-20T05:32:52.059Z,20.57
2023-01-20T05:35:20.487Z,18.67
2023-01-20T05:37:48.681Z,20.50
2023-01-20T05:40:17.317Z,18.83
2023-01-20T05:42:45.451Z,19.10
2023-01-20T05:45:14.042Z,18.57
2023-01-20T05:47:42.361Z,18.33
2023-01-20T05:50:13.047Z,18.13
2023-01-20T05:52:41.471Z,18.70
2023-01-20T05:55:10.628Z,18.43
2023-01-20T05:57:38.798Z,19.50
2023-01-20T06:00:08.886Z,18.80
2023-01-20T06:02:37.296Z,18.70
2023-01-20T06:05:06.167Z,18.80
2023-01-20T06:07:35.753Z,18.37
2023-01-20T06:10:04.164Z,21.17
2023-01-20T06:12:32.435Z,21.60
2023-01-20T06:15:00.587Z,20.10
2023-01-20T06:17:28.915Z,20.50
2023-01-20T06:19:57.283Z,22.30
2023-01-20T06:22:26.152Z,21.73
2023-01-20T06:24:55.734Z,21.60
2023-01-20T06:27:23.942Z,21.37
2023-01-20T06:29:52.092Z,22.13
2023-01-20T06:32:20.552Z,21.30
2023-01-20T06:34:48.832Z,22.20
2023-01-20T06:37:17.255Z,21.77
2023-01-20T06:39:45.429Z,22.90
2023-01-20T06:42:15.134Z,22.50
2023-01-20T06:44:43.284Z,20.92
2023-01-20T06:47:11.730Z,21.13
2023-01-20T06:49:39.865Z,20.07
2023-01-20T06:52:08.558Z,21.23
2023-01-20T06:54:36.728Z,21.27
2023-01-20T06:57:05.151Z,21.92
2023-01-20T06:59:34.706Z,19.77
2023-01-20T07:02:03.209Z,19.27
2023-01-20T07:04:31.423Z,19.53
2023-01-20T07:06:59.714Z,19.92
2023-01-20T07:09:27.984Z,19.08
2023-01-20T07:11:56.255Z,18.88
2023-01-20T07:14:24.388Z,19.47
2023-01-20T07:16:54.056Z,18.83
2023-01-20T07:19:22.192Z,18.95
2023-01-20T07:21:50.503Z,19.40
2023-01-20T07:24:19.010Z,19.33
2023-01-20T07:26:47.175Z,19.10
2023-01-20T07:29:17.758Z,20.55
2023-01-20T07:31:46.961Z,20.30
2023-01-20T07:34:16.495Z,19.98
2023-01-20T07:36:44.825Z,20.10
2023-01-20T07:39:14.429Z,20.55
2023-01-20T07:41:43.849Z,20.42
2023-01-20T07:44:11.934Z,20.52
2023-01-20T07:46:40.133Z,20.60
2023-01-20T07:49:10.128Z,20.80
2023-01-20T07:51:43.354Z,21.83
2023-01-20T07:54:12.810Z,19.70
2023-01-20T07:56:41.045Z,20.50
2023-01-20T07:59:11.344Z,20.87
2023-01-20T08:01:39.549Z,20.50
2023-01-20T08:04:07.785Z,21.10
2023-01-20T08:06:35.962Z,20.73
2023-01-20T08:09:05.730Z,20.10
2023-01-20T08:11:33.862Z,21.87
2023-01-20T08:14:02.104Z,19.17
2023-01-20T08:16:30.233Z,20.33
2023-01-20T08:18:58.703Z,19.53
2023-01-20T08:21:28.396Z,20.17
2023-01-20T08:23:57.535Z,20.42
2023-01-20T08:26:29.670Z,21.00
2023-01-20T08:29:02.739Z,20.02
2023-01-20T08:31:31.290Z,20.02
2023-01-20T08:34:00.263Z,20.63
2023-01-20T08:36:30.541Z,19.90
2023-01-20T08:39:00.758Z,19.52
2023-01-20T08:41:32.146Z,19.60
2023-01-20T08:44:01.353Z,19.35
2023-01-20T08:46:29.899Z,18.85
2023-01-20T08:48:58.330Z,19.95
2023-01-20T08:51:28.966Z,19.10
2023-01-20T08:53:57.283Z,19.60
2023-01-20T08:56:25.604Z,20.13
2023-01-20T08:58:55.284Z,20.00
2023-01-20T09:01:25.863Z,19.58
2023-01-20T09:04:05.307Z,20.10
2023-01-20T09:06:40.052Z,19.40
2023-01-20T09:09:08.335Z,18.63
2023-01-20T09:11:36.609Z,18.53
2023-01-20T09:14:06.244Z,20.25
2023-01-20T09:16:34.445Z,18.75
2023-01-20T09:19:03.205Z,17.60
2023-01-20T09:21:31.495Z,18.85
2023-01-20T09:23:59.799Z,18.57
2023-01-20T09:26:35.775Z,18.80
2023-01-20T09:29:10.313Z,19.17
2023-01-20T09:31:39.470Z,17.70
2023-01-20T09:34:08.123Z,17.65
2023-01-20T09:36:36.351Z,15.57
2023-01-20T09:39:22.135Z,17.00
2023-01-20T09:42:08.568Z,16.73
2023-01-20T09:44:48.035Z,15.50
2023-01-20T09:47:31.350Z,15.65
2023-01-20T09:50:55.597Z,15.98
2023-01-20T09:53:36.258Z,15.35
2023-01-20T09:56:10.632Z,15.35
2023-01-20T09:58:45.871Z,16.55
2023-01-20T10:01:21.285Z,16.05
2023-01-20T10:03:53.923Z,15.02
2023-01-20T10:06:26.827Z,15.07
2023-01-20T10:09:06.025Z,17.40
2023-01-20T10:11:39.365Z,15.77
2023-01-20T10:14:15.056Z,16.87
2023-01-20T10:16:51.534Z,15.65
2023-01-20T10:19:28.178Z,15.20
2023-01-20T10:22:05.802Z,15.65
2023-01-20T10:24:38.196Z,15.93
2023-01-20T10:27:06.589Z,14.88
2023-01-20T10:29:37.653Z,15.35
2023-01-20T10:32:14.513Z,16.13
2023-01-20T10:34:47.622Z,15.57
2023-01-20T10:37:16.527Z,16.63
2023-01-20T10:39:49.901Z,14.60
2023-01-20T10:42:20.320Z,15.85
2023-01-20T10:44:50.925Z,16.43
2023-01-20T10:47:44.942Z,18.37
2023-01-20T10:50:41.867Z,16.70
2023-01-20T10:53:25.220Z,17.23
2023-01-20T10:56:03.398Z,16.13
2023-01-20T10:58:33.503Z,15.77
2023-01-20T11:01:04.500Z,16.67
2023-01-20T11:03:38.235Z,16.57
2023-01-20T11:06:08.491Z,17.40
2023-01-20T11:08:36.722Z,17.45
2023-01-20T11:11:12.580Z,17.13
2023-01-20T11:13:40.795Z,16.70
2023-01-20T11:16:17.332Z,16.65
2023-01-20T11:18:59.975Z,17.33
2023-01-20T11:21:31.064Z,15.45
2023-01-20T11:24:00.871Z,17.70
2023-01-20T11:26:32.362Z,16.33
2023-01-20T11:29:02.955Z,17.30
2023-01-20T11:31:42.379Z,16.33
2023-01-20T11:34:23.290Z,15.48
2023-01-20T11:36:52.699Z,15.85
2023-01-20T11:39:29.562Z,15.65
2023-01-20T11:42:17.306Z,14.83
2023-01-20T11:44:46.189Z,14.80
2023-01-20T11:47:23.972Z,14.52
2023-01-20T11:50:25.667Z,13.93
2023-01-20T11:52:54.152Z,13.90
2023-01-20T11:55:24.462Z,14.57
2023-01-20T11:57:55.390Z,14.05
2023-01-20T12:00:43.183Z,16.35
2023-01-20T12:03:56.836Z,16.20
2023-01-20T12:06:28.891Z,16.35
2023-01-20T12:09:02.947Z,16.45
2023-01-20T12:11:35.010Z,16.67
2023-01-20T12:14:28.637Z,15.80
2023-01-20T12:17:16.651Z,16.40
2023-01-20T12:20:06.745Z,16.40
2023-01-20T12:22:45.166Z,16.23
2023-01-20T12:25:19.999Z,15.32
2023-01-20T12:27:54.784Z,15.17
2023-01-20T12:30:56.044Z,15.97
2023-01-20T12:33:26.895Z,15.87
2023-01-20T12:36:29.995Z,16.80
2023-01-20T12:39:45.380Z,16.60
2023-01-20T12:42:46.006Z,18.33
2023-01-20T12:45:26.749Z,17.92
2023-01-20T12:48:05.449Z,17.25
2023-01-20T12:50:52.186Z,17.30
2023-01-20T12:53:41.837Z,16.17
2023-01-20T12:56:21.147Z,16.10
2023-01-20T12:58:58.553Z,17.13
2023-01-20T13:01:45.588Z,17.17
2023-01-20T13:04:49.419Z,16.37
2023-01-20T13:07:40.569Z,14.80
2023-01-20T13:10:23.015Z,15.07
2023-01-20T13:13:01.445Z,13.70
2023-01-20T13:15:31.240Z,11.63
2023-01-20T13:18:27.810Z,11.25
2023-01-20T13:20:56.343Z,11.30
2023-01-20T13:23:27.094Z,12.17
2023-01-20T13:25:56.719Z,12.50
2023-01-20T13:28:28.899Z,12.90
2023-01-20T13:30:58.344Z,12.60
2023-01-20T13:33:36.501Z,13.07
2023-01-20T13:36:17.629Z,13.13
2023-01-20T13:38:46.674Z,12.20
2023-01-20T13:41:51.215Z,11.90
2023-01-20T13:44:36.873Z,11.02
2023-01-20T13:47:05.738Z,11.50
2023-01-20T13:49:50.265Z,11.00
2023-01-20T13:53:13.192Z,10.30
2023-01-20T13:56:01.578Z,9.73
2023-01-20T13:58:31.504Z,10.20
2023-01-20T14:01:02.471Z,9.98
2023-01-20T14:03:32.711Z,9.05
2023-01-20T14:06:02.207Z,8.47
2023-01-20T14:08:33.168Z,8.20
2023-01-20T14:11:08.201Z,8.57
2023-01-20T14:13:36.520Z,8.00
2023-01-20T14:16:06.763Z,8.80
2023-01-20T14:18:35.066Z,8.97
2023-01-20T14:21:06.351Z,9.00
2023-01-20T14:23:37.622Z,8.93
2023-01-20T14:26:11.463Z,10.33
2023-01-20T14:28:48.728Z,10.13
2023-01-20T14:31:21.401Z,10.03
2023-01-20T14:33:55.047Z,9.95
2023-01-20T14:36:24.712Z,9.30
2023-01-20T14:38:58.275Z,11.60
2023-01-20T14:41:47.467Z,10.90
2023-01-20T14:44:20.110Z,11.70
2023-01-20T14:46:52.115Z,11.87
2023-01-20T14:49:22.639Z,11.87
2023-01-20T14:51:52.829Z,11.77
2023-01-20T14:54:39.172Z,12.57
2023-01-20T14:57:21.239Z,13.40
2023-01-20T15:00:02.239Z,13.00
2023-01-20T15:02:35.345Z,12.77
2023-01-20T15:05:13.674Z,11.73
2023-01-20T15:07:42.100Z,12.83
2023-01-20T15:10:16.620Z,12.53
2023-01-20T15:12:55.912Z,12.30
2023-01-20T15:15:30.373Z,12.50
2023-01-20T15:18:23.378Z,12.23
2023-01-20T15:21:03.799Z,13.50
2023-01-20T15:23:41.364Z,14.20
2023-01-20T15:26:10.919Z,14.23
2023-01-20T15:28:44.472Z,13.60
2023-01-20T15:31:14.311Z,14.20
2023-01-20T15:33:44.743Z,15.03
2023-01-20T15:36:24.875Z,15.17
2023-01-20T15:38:53.094Z,15.40
2023-01-20T15:41:21.843Z,13.13
2023-01-20T15:43:52.469Z,15.17
2023-01-20T15:46:21.058Z,15.27
2023-01-20T15:48:50.613Z,14.70
2023-01-20T15:51:21.093Z,15.53
2023-01-20T15:53:49.604Z,14.93
2023-01-20T15:56:21.632Z,14.80
2023-01-20T15:58:50.508Z,14.60
2023-01-20T16:01:21.070Z,13.80
2023-01-20T16:03:51.555Z,13.10
2023-01-20T16:06:21.377Z,12.53
2023-01-20T16:08:51.083Z,14.60
2023-01-20T16:11:20.564Z,12.13
2023-01-20T16:13:48.796Z,12.90
2023-01-20T16:16:19.933Z,12.07
2023-01-20T16:18:48.897Z,10.80
2023-01-20T16:21:20.541Z,10.20
2023-01-20T16:23:48.749Z,9.67
2023-01-20T16:26:22.681Z,10.43
2023-01-20T16:28:51.350Z,9.33
2023-01-20T16:31:20.349Z,9.77
2023-01-20T16:33:48.680Z,10.50
2023-01-20T16:36:20.541Z,9.27
2023-01-20T16:38:49.728Z,10.93
2023-01-20T16:41:21.400Z,11.90
2023-01-20T16:43:50.076Z,13.43
2023-01-20T16:46:20.620Z,14.40
2023-01-20T16:48:49.055Z,13.60
2023-01-20T16:51:19.903Z,13.30
2023-01-20T16:53:48.422Z,12.37
2023-01-20T16:56:17.633Z,10.37
2023-01-20T16:58:48.413Z,9.73
2023-01-20T17:01:21.190Z,9.50
2023-01-20T17:03:49.695Z,9.27
2023-01-20T17:06:20.761Z,8.53
2023-01-20T17:08:50.423Z,7.70
2023-01-20T17:11:19.227Z,8.20
2023-01-20T17:13:47.775Z,8.70
2023-01-20T17:16:16.494Z,9.40
2023-01-20T17:18:45.707Z,9.37
2023-01-20T17:21:15.074Z,8.60
2023-01-20T17:23:44.686Z,9.57
2023-01-20T17:26:12.842Z,9.50
2023-01-20T17:28:41.109Z,8.17
2023-01-20T17:31:09.451Z,9.97
2023-01-20T17:33:37.700Z,10.03
2023-01-20T17:36:07.515Z,9.87
2023-01-20T17:38:36.712Z,10.50
2023-01-20T17:41:07.605Z,9.33
2023-01-20T17:43:37.426Z,8.10
2023-01-20T17:46:14.830Z,10.43
2023-01-20T17:48:43.240Z,9.60
2023-01-20T17:51:12.893Z,9.63
2023-01-20T17:53:41.236Z,10.60
2023-01-20T17:56:13.579Z,9.77
2023-01-20T17:58:42.790Z,11.50
2023-01-20T18:01:12.363Z,10.50
2023-01-20T18:03:43.473Z,11.43
2023-01-20T18:06:13.464Z,10.70
2023-01-20T18:08:42.124Z,10.53
2023-01-20T18:11:15.092Z,9.73
2023-01-20T18:13:46.031Z,11.47
2023-01-20T18:16:16.194Z,10.60
2023-01-20T18:18:46.268Z,8.37
2023-01-20T18:21:16.476Z,11.67
2023-01-20T18:23:46.094Z,11.23
2023-01-20T18:26:17.908Z,10.50
2023-01-20T18:28:47.995Z,12.23
2023-01-20T18:31:18.253Z,10.80
2023-01-20T18:33:48.293Z,11.10
2023-01-20T18:36:18.461Z,11.30
2023-01-20T18:38:51.020Z,9.93
2023-01-20T18:41:21.147Z,11.67
2023-01-20T18:43:50.001Z,10.67
2023-01-20T18:46:19.505Z,11.43
2023-01-20T18:48:49.086Z,10.63
2023-01-20T18:51:20.378Z,11.17
2023-01-20T18:53:55.628Z,9.97
2023-01-20T18:56:26.431Z,11.47
2023-01-20T18:58:55.512Z,10.80
2023-01-20T19:01:25.756Z,10.80
2023-01-20T19:03:55.182Z,10.97
2023-01-20T19:06:25.695Z,10.80
2023-01-20T19:08:54.367Z,8.10
2023-01-20T19:11:25.648Z,10.27
2023-01-20T19:13:54.535Z,9.73
2023-01-20T19:16:24.995Z,9.27
2023-01-20T19:18:55.232Z,9.80
2023-01-20T19:21:24.513Z,10.37
2023-01-20T19:23:54.274Z,9.57
2023-01-20T19:26:25.011Z,11.17
2023-01-20T19:28:57.626Z,10.97
2023-01-20T19:31:26.221Z,10.10
2023-01-20T19:33:54.497Z,10.47
2023-01-20T19:36:23.619Z,9.67
2023-01-20T19:38:52.823Z,10.63
2023-01-20T19:41:22.979Z,9.90
2023-01-20T19:43:57.295Z,9.63
2023-01-20T19:46:27.479Z,10.23
2023-01-20T19:48:57.567Z,9.57
2023-01-20T19:51:26.569Z,9.37
2023-01-20T19:53:57.921Z,8.77
2023-01-20T19:56:27.836Z,8.37
2023-01-20T19:58:57.955Z,9.10
2023-01-20T20:01:29.797Z,8.60
2023-01-20T20:04:00.117Z,8.20
2023-01-20T20:06:30.760Z,7.63
2023-01-20T20:09:01.056Z,8.90
2023-01-20T20:11:29.969Z,8.30
2023-01-20T20:14:01.099Z,8.43
2023-01-20T20:16:31.520Z,7.80
2023-01-20T20:19:00.283Z,9.13
2023-01-20T20:21:29.204Z,8.43
2023-01-20T20:23:59.237Z,7.70
2023-01-20T20:26:29.506Z,8.27
2023-01-20T20:29:00.284Z,9.17
2023-01-20T20:31:29.531Z,9.37
2023-01-20T20:33:58.682Z,8.10
2023-01-20T20:36:28.537Z,8.87
2023-01-20T20:38:58.412Z,6.37
2023-01-20T20:41:29.237Z,8.13
2023-01-20T20:43:59.290Z,8.67
2023-01-20T20:46:27.675Z,8.10
2023-01-20T20:48:56.752Z,8.53
2023-01-20T20:51:24.958Z,8.53
2023-01-20T20:53:55.994Z,8.27
2023-01-20T20:56:25.067Z,7.53
2023-01-20T20:59:01.327Z,8.50
2023-01-20T21:01:34.079Z,7.13
2023-01-20T21:04:03.544Z,8.60
2023-01-20T21:06:32.245Z,8.70
2023-01-20T21:09:01.362Z,8.80
2023-01-20T21:11:30.116Z,9.00
2023-01-20T21:13:58.362Z,8.93
2023-01-20T21:16:28.134Z,9.43
2023-01-20T21:18:59.344Z,9.60
2023-01-20T21:21:29.003Z,9.13
2023-01-20T21:23:59.107Z,8.53
2023-01-20T21:26:30.415Z,8.37
2023-01-20T21:29:01.962Z,7.07
2023-01-20T21:31:31.857Z,8.30
2023-01-20T21:34:02.108Z,8.40
2023-01-20T21:36:31.397Z,7.20
2023-01-20T21:39:00.231Z,7.87
2023-01-20T21:41:28.587Z,7.13
2023-01-20T21:44:14.351Z,7.77
2023-01-20T21:46:42.780Z,6.23
2023-01-20T21:49:30.110Z,7.73
2023-01-20T21:52:15.667Z,7.90
2023-01-20T21:54:45.490Z,8.27
2023-01-20T21:57:14.062Z,7.77
2023-01-20T21:59:42.999Z,7.90
2023-01-20T22:02:13.458Z,8.57
2023-01-20T22:04:43.460Z,7.77
2023-01-20T22:07:11.733Z,7.27
2023-01-20T22:09:40.263Z,9.30
2023-01-20T22:12:08.763Z,8.87
2023-01-20T22:14:37.088Z,8.53
2023-01-20T22:17:05.488Z,8.70
2023-01-20T22:19:33.882Z,9.90
2023-01-20T22:22:03.489Z,8.63
2023-01-20T22:24:32.000Z,8.57
2023-01-20T22:27:00.449Z,8.57
2023-01-20T22:29:28.947Z,7.77
2023-01-20T22:31:59.539Z,8.63
2023-01-20T22:34:27.952Z,8.03
2023-01-20T22:36:57.740Z,6.77
2023-01-20T22:39:27.770Z,7.70
2023-01-20T22:41:55.966Z,8.00
2023-01-20T22:44:24.235Z,7.57
2023-01-20T22:46:52.931Z,8.30
2023-01-20T22:49:21.286Z,6.83
2023-01-20T22:51:49.490Z,8.27
2023-01-20T22:54:17.815Z,6.93
2023-01-20T22:56:47.490Z,7.10
2023-01-20T22:59:17.889Z,6.37
2023-01-20T23:01:46.139Z,7.30
2023-01-20T23:04:17.081Z,6.90
2023-01-20T23:06:45.338Z,6.70
2023-01-20T23:09:14.522Z,6.37
2023-01-20T23:11:42.804Z,7.43
2023-01-20T23:14:13.557Z,6.67
2023-01-20T23:16:42.314Z,7.17
2023-01-20T23:19:10.822Z,7.60
2023-01-20T23:21:39.069Z,6.63
2023-01-20T23:24:09.065Z,6.43
2023-01-20T23:26:37.332Z,7.27
2023-01-20T23:29:05.520Z,8.00
2023-01-20T23:31:35.482Z,7.97
2023-01-20T23:34:03.842Z,7.87
2023-01-20T23:36:32.191Z,8.43
2023-01-20T23:39:00.449Z,7.90
2023-01-20T23:41:28.684Z,7.23
2023-01-20T23:43:56.866Z,8.10
2023-01-20T23:46:25.117Z,9.37
2023-01-20T23:48:54.657Z,8.53
2023-01-20T23:51:23.384Z,9.00
2023-01-20T23:53:51.634Z,8.47
2023-01-20T23:56:22.355Z,9.47
2023-01-20T23:58:51.373Z,9.17
